Pagrindinis puslapis
METAR-TAF:

METAR-TAF

Oro uostai :

Rosh Pinna, Izraelis

platuma: 32-58-48N, ilguma: 035-34-12E, Aukštis: 281 m

Dabartinis oras

Ataskaita buvo paskelbta 8 valandos ir 1 minutes, ne 15:50 UTC
Vėjas 6 kt iš Šiaurės/Šiaurės Vakarų, svyruoja nuo Vakarų/Šiaurės Vakarų ir Šiaurės
Temperatūra 27°C
Drėgmė 39%
Slėgis 1014 hPa
Matomumas 10 km arba daugiau
nėra debesų žemiau 1500 m ir nėra kamuolinių lietaus debesų

METAR: LLIB 241550Z AUTO 33006KT 300V360 CAVOK 27/12 Q1014

Laikas: 02:51 (23:51 UTC)

Prognozė

Ataskaita buvo paskelbta 12 valandos ir 49 minutes, ne 11:02 UTC
Prognozė galioja nuo 24 metu 12 UTC su 25 metu 12 UTC
Vėjas 12 kt iš Šiaurės
Matomumas 10 km arba daugiau
nėra debesų žemiau 1500 m ir nėra kamuolinių lietaus debesų
Tapsmas
nuo 24 metu 18 UTC su 24 metu 20 UTC
Vėjas 4 kt nuo kintamojo kryptimis
Tapsmas
nuo 25 metu 06 UTC su 25 metu 08 UTC
Vėjas 10 kt iš Šiaurės

TAF: LLIB 241102Z 2412/2512 35012KT CAVOK BECMG 2418/2420 VRB04KT BECMG 2506/2508 35010KT TX33/2412Z TN21/2504Z

Orai ataskaitas ir orų prognozės (METAR, TAF).

turimą stotys yra geltonos ir raudonos taškus žemėlapyje.

Perkelti pele per norėdami pamatyti stoties vardą.

Tada spustelėkite, norėdami matyti oro stebėjimo ir prognozės.

Norėdami pakeisti žemėlapį: spustelėkite ant žalios mygtukų su juodo kryžiaus žemyn,; žalią mygtuką su brūkšneliu, jei norite nutolinti; arba žalių rodyklių gretimoms žemėlapius.


METAR-TAF: